createdAt,value
2018-10-16T00:01:31.923Z,18.53
2018-10-16T00:04:02.606Z,16.13
2018-10-16T00:06:33.376Z,21.97
2018-10-16T00:09:04.068Z,18.37
2018-10-16T00:11:34.745Z,17.20
2018-10-16T00:14:05.442Z,17.17
2018-10-16T00:16:36.106Z,17.93
2018-10-16T00:19:06.832Z,18.67
2018-10-16T00:21:37.777Z,16.97
2018-10-16T00:24:08.456Z,18.03
2018-10-16T00:26:39.515Z,16.33
2018-10-16T00:29:10.180Z,17.25
2018-10-16T00:31:40.865Z,16.10
2018-10-16T00:34:11.481Z,16.33
2018-10-16T00:36:42.322Z,16.73
2018-10-16T00:39:14.527Z,20.90
2018-10-16T00:41:45.270Z,17.23
2018-10-16T00:44:15.868Z,15.15
2018-10-16T00:46:46.563Z,21.60
2018-10-16T00:49:17.178Z,18.07
2018-10-16T00:51:47.921Z,20.67
2018-10-16T00:54:18.570Z,18.40
2018-10-16T00:56:49.256Z,19.20
2018-10-16T00:59:19.850Z,20.23
2018-10-16T01:01:50.515Z,18.20
2018-10-16T01:04:21.540Z,17.90
2018-10-16T01:06:52.560Z,17.63
2018-10-16T01:09:23.288Z,17.63
2018-10-16T01:11:53.940Z,16.63
2018-10-16T01:14:24.580Z,15.95
2018-10-16T01:16:55.697Z,16.33
2018-10-16T01:19:26.339Z,17.53
2018-10-16T01:21:57.382Z,19.00
2018-10-16T01:24:28.310Z,14.10
2018-10-16T01:26:59.024Z,20.70
2018-10-16T01:29:29.692Z,16.70
2018-10-16T01:32:00.661Z,19.17
2018-10-16T01:34:31.433Z,17.13
2018-10-16T01:37:02.065Z,16.67
2018-10-16T01:39:32.799Z,21.93
2018-10-16T01:42:03.437Z,18.30
2018-10-16T01:44:35.167Z,17.10
2018-10-16T01:47:06.025Z,18.40
2018-10-16T01:49:37.379Z,16.77
2018-10-16T01:52:08.079Z,16.93
2018-10-16T01:54:38.717Z,15.97
2018-10-16T01:57:09.461Z,19.07
2018-10-16T01:59:40.445Z,16.17
2018-10-16T02:02:11.113Z,17.55
2018-10-16T02:04:41.811Z,16.48
2018-10-16T02:07:13.047Z,18.40
2018-10-16T02:09:44.563Z,18.67
2018-10-16T02:12:15.217Z,16.03
2018-10-16T02:14:45.940Z,15.93
2018-10-16T02:17:16.579Z,17.17
2018-10-16T02:19:47.762Z,17.65
2018-10-16T02:22:18.558Z,14.90
2018-10-16T02:24:49.184Z,18.17
2018-10-16T02:27:19.891Z,16.73
2018-10-16T02:29:50.625Z,16.82
2018-10-16T02:32:21.287Z,15.83
2018-10-16T02:34:52.011Z,15.53
2018-10-16T02:37:22.675Z,13.87
2018-10-16T02:39:53.360Z,14.80
2018-10-16T02:42:24.028Z,15.33
2018-10-16T02:44:54.688Z,15.53
2018-10-16T02:47:26.502Z,15.58
2018-10-16T02:49:57.146Z,14.70
2018-10-16T02:52:27.831Z,16.62
2018-10-16T02:54:59.100Z,15.20
2018-10-16T02:57:29.800Z,15.77
2018-10-16T03:00:00.769Z,17.37
2018-10-16T03:02:31.516Z,19.33
2018-10-16T03:05:02.574Z,16.73
2018-10-16T03:07:33.233Z,15.60
2018-10-16T03:10:04.073Z,18.47
2018-10-16T03:12:34.674Z,14.30
2018-10-16T03:15:06.273Z,17.03
2018-10-16T03:17:36.916Z,14.95
2018-10-16T03:20:07.837Z,15.53
2018-10-16T03:22:38.776Z,17.57
2018-10-16T03:25:12.023Z,18.50
2018-10-16T03:27:42.953Z,17.20
2018-10-16T03:30:13.961Z,15.00
2018-10-16T03:32:44.675Z,16.77
2018-10-16T03:35:15.352Z,16.10
2018-10-16T03:37:46.006Z,13.30
2018-10-16T03:40:16.776Z,16.90
2018-10-16T03:42:47.414Z,16.97
2018-10-16T03:45:18.100Z,14.80
2018-10-16T03:47:48.754Z,15.10
2018-10-16T03:50:19.443Z,18.37
2018-10-16T03:52:50.102Z,17.17
2018-10-16T03:55:21.121Z,17.30
2018-10-16T03:57:52.058Z,17.33
2018-10-16T04:00:22.712Z,19.40
2018-10-16T04:02:53.892Z,18.30
2018-10-16T04:05:24.546Z,16.57
2018-10-16T04:07:55.233Z,17.77
2018-10-16T04:10:25.941Z,16.63
2018-10-16T04:12:56.664Z,16.70
2018-10-16T04:15:27.353Z,17.63
2018-10-16T04:17:58.472Z,19.63
2018-10-16T04:20:29.145Z,17.50
2018-10-16T04:22:59.837Z,15.90
2018-10-16T04:25:30.399Z,19.43
2018-10-16T04:28:01.217Z,20.30
2018-10-16T04:30:31.927Z,18.20
2018-10-16T04:33:02.549Z,19.25
2018-10-16T04:35:33.190Z,16.77
2018-10-16T04:38:03.841Z,16.23
2018-10-16T04:40:34.623Z,15.10
2018-10-16T04:43:06.268Z,20.45
2018-10-16T04:45:36.808Z,17.03
2018-10-16T04:48:07.920Z,16.80
2018-10-16T04:50:38.872Z,15.10
2018-10-16T04:53:09.526Z,15.77
2018-10-16T04:55:40.537Z,18.55
2018-10-16T04:58:11.213Z,17.02
2018-10-16T05:00:41.858Z,17.30
2018-10-16T05:03:12.517Z,17.50
2018-10-16T05:05:43.193Z,22.20
2018-10-16T05:08:13.858Z,22.80
2018-10-16T05:10:44.485Z,23.83
2018-10-16T05:13:15.248Z,19.63
2018-10-16T05:15:45.838Z,19.73
2018-10-16T05:18:16.479Z,22.17
2018-10-16T05:20:47.104Z,23.10
2018-10-16T05:23:17.805Z,20.50
2018-10-16T05:25:48.451Z,19.35
2018-10-16T05:28:19.118Z,18.50
2018-10-16T05:30:50.125Z,18.17
2018-10-16T05:33:20.791Z,21.00
2018-10-16T05:35:52.077Z,20.43
2018-10-16T05:38:23.269Z,23.30
2018-10-16T05:40:54.047Z,24.97
2018-10-16T05:43:24.938Z,23.60
2018-10-16T05:45:55.570Z,23.97
2018-10-16T05:48:26.180Z,24.63
2018-10-16T05:50:56.942Z,21.90
2018-10-16T05:53:27.509Z,23.33
2018-10-16T05:56:06.342Z,23.43
2018-10-16T05:58:37.401Z,22.33
2018-10-16T06:01:08.064Z,23.33
2018-10-16T06:03:38.711Z,20.37
2018-10-16T06:06:09.898Z,22.07
2018-10-16T06:08:41.179Z,22.40
2018-10-16T06:11:11.784Z,21.87
2018-10-16T06:13:42.568Z,24.23
2018-10-16T06:16:13.140Z,28.25
2018-10-16T06:18:43.802Z,28.50
2018-10-16T06:21:14.451Z,23.27
2018-10-16T06:23:45.103Z,27.87
2018-10-16T06:26:16.145Z,25.03
2018-10-16T06:28:46.755Z,25.87
2018-10-16T06:31:17.820Z,25.73
2018-10-16T06:33:48.539Z,28.47
2018-10-16T06:36:19.133Z,23.25
2018-10-16T06:38:50.352Z,27.70
2018-10-16T06:41:21.135Z,27.57
2018-10-16T06:43:51.712Z,26.62
2018-10-16T06:46:22.339Z,23.33
2018-10-16T06:48:53.716Z,27.90
2018-10-16T06:51:24.234Z,25.50
2018-10-16T06:53:54.849Z,25.77
2018-10-16T06:56:25.553Z,25.10
2018-10-16T06:58:56.717Z,26.97
2018-10-16T07:01:27.921Z,30.40
2018-10-16T07:03:58.609Z,25.00
2018-10-16T07:06:29.279Z,29.70
2018-10-16T07:09:00.267Z,25.13
2018-10-16T07:11:31.118Z,25.53
2018-10-16T07:14:01.776Z,22.17
2018-10-16T07:16:32.577Z,21.23
2018-10-16T07:19:03.311Z,27.00
2018-10-16T07:21:34.128Z,25.60
2018-10-16T07:24:05.062Z,27.20
2018-10-16T07:26:35.611Z,30.13
2018-10-16T07:29:07.078Z,29.23
2018-10-16T07:31:37.809Z,25.67
2018-10-16T07:34:08.459Z,27.50
2018-10-16T07:36:39.641Z,30.77
2018-10-16T07:39:12.531Z,32.63
2018-10-16T07:41:43.614Z,26.33
2018-10-16T07:44:14.329Z,28.00
2018-10-16T07:46:45.009Z,25.33
2018-10-16T07:49:15.674Z,25.57
2018-10-16T07:51:46.309Z,27.43
2018-10-16T07:54:17.351Z,25.53
2018-10-16T07:56:48.256Z,27.40
2018-10-16T07:59:19.074Z,25.80
2018-10-16T08:01:49.714Z,26.43
2018-10-16T08:04:20.407Z,30.90
2018-10-16T08:06:51.037Z,29.73
2018-10-16T08:09:21.664Z,27.35
2018-10-16T08:11:52.801Z,25.33
2018-10-16T08:14:23.480Z,27.50
2018-10-16T08:16:54.087Z,27.47
2018-10-16T08:19:24.786Z,28.03
2018-10-16T08:21:55.738Z,23.63
2018-10-16T08:24:26.823Z,29.27
2018-10-16T08:26:57.966Z,24.18
2018-10-16T08:29:28.590Z,26.73
2018-10-16T08:31:59.289Z,30.73
2018-10-16T08:34:30.151Z,29.00
2018-10-16T08:37:01.325Z,29.33
2018-10-16T08:39:34.157Z,31.23
2018-10-16T08:42:30.028Z,32.60
2018-10-16T08:45:26.888Z,35.40
2018-10-16T08:48:33.294Z,29.93
2018-10-16T08:51:54.015Z,34.97
2018-10-16T08:54:24.834Z,29.57
2018-10-16T08:56:55.477Z,30.83
2018-10-16T08:59:26.266Z,28.07
2018-10-16T09:01:56.981Z,29.12
2018-10-16T09:04:28.108Z,35.10
2018-10-16T09:06:58.765Z,33.40
2018-10-16T09:09:29.606Z,29.13
2018-10-16T09:12:00.891Z,30.17
2018-10-16T09:14:31.903Z,32.30
2018-10-16T09:17:02.518Z,30.97
2018-10-16T09:19:33.591Z,33.73
2018-10-16T09:22:04.296Z,33.88
2018-10-16T09:24:35.050Z,34.27
2018-10-16T09:27:05.667Z,33.90
2018-10-16T09:29:36.311Z,31.25
2018-10-16T09:32:07.222Z,32.98
2018-10-16T09:34:37.849Z,33.13
2018-10-16T09:37:08.585Z,33.50
2018-10-16T09:39:39.271Z,34.57
2018-10-16T09:42:09.838Z,39.73
2018-10-16T09:44:40.819Z,37.60
2018-10-16T09:47:11.514Z,31.97
2018-10-16T09:49:42.225Z,35.08
2018-10-16T09:52:12.806Z,36.98
2018-10-16T09:54:43.418Z,34.95
2018-10-16T09:57:14.126Z,30.90
2018-10-16T09:59:44.815Z,35.87
2018-10-16T10:02:15.487Z,32.87
2018-10-16T10:04:46.146Z,32.03
2018-10-16T10:07:16.860Z,30.83
2018-10-16T10:09:47.493Z,36.38
2018-10-16T10:12:18.279Z,30.70
2018-10-16T10:14:49.020Z,32.83
2018-10-16T10:17:19.724Z,40.10
2018-10-16T10:19:50.384Z,37.47
2018-10-16T10:22:21.147Z,35.80
2018-10-16T10:24:52.061Z,40.10
2018-10-16T10:27:22.795Z,36.33
2018-10-16T10:29:53.512Z,37.13
2018-10-16T10:32:24.678Z,36.17
2018-10-16T10:34:55.349Z,36.83
2018-10-16T10:37:25.948Z,38.78
2018-10-16T10:39:57.538Z,36.17
2018-10-16T10:42:28.289Z,40.10
2018-10-16T10:44:58.954Z,40.27
2018-10-16T10:47:29.602Z,36.30
2018-10-16T10:50:00.379Z,34.43
2018-10-16T10:52:30.859Z,35.60
2018-10-16T10:55:01.521Z,35.70
2018-10-16T10:57:32.621Z,32.70
2018-10-16T11:00:03.314Z,31.67
2018-10-16T11:02:33.946Z,34.30
2018-10-16T11:05:04.562Z,36.60
2018-10-16T11:07:35.266Z,34.73
2018-10-16T11:10:06.316Z,36.77
2018-10-16T11:12:37.255Z,40.17
2018-10-16T11:15:08.935Z,35.30
2018-10-16T11:17:40.264Z,35.87
2018-10-16T11:20:13.323Z,36.87
2018-10-16T11:22:44.005Z,37.13
2018-10-16T11:25:14.989Z,33.63
2018-10-16T11:27:46.264Z,36.35
2018-10-16T11:30:17.147Z,34.13
2018-10-16T11:32:47.735Z,37.83
2018-10-16T11:35:18.340Z,35.40
2018-10-16T11:37:48.993Z,35.00
2018-10-16T11:40:19.623Z,43.45
2018-10-16T11:42:50.624Z,43.08
2018-10-16T11:45:21.305Z,34.87
2018-10-16T11:47:51.996Z,35.07
2018-10-16T11:50:26.772Z,38.50
2018-10-16T11:53:00.910Z,39.93
2018-10-16T11:55:32.196Z,38.70
2018-10-16T11:58:02.956Z,40.00
2018-10-16T12:00:33.650Z,39.87
2018-10-16T12:03:04.248Z,36.43
2018-10-16T12:05:35.025Z,38.57
2018-10-16T12:08:05.742Z,40.60
2018-10-16T12:10:36.363Z,42.53
2018-10-16T12:13:07.807Z,39.77
2018-10-16T12:15:39.740Z,35.83
2018-10-16T12:18:15.364Z,37.78
2018-10-16T12:21:21.290Z,38.65
2018-10-16T12:23:52.485Z,33.75
2018-10-16T12:26:23.639Z,35.05
2018-10-16T12:28:54.684Z,34.83
2018-10-16T12:31:25.804Z,32.50
2018-10-16T12:33:56.490Z,27.30
2018-10-16T12:36:27.107Z,33.60
2018-10-16T12:38:57.770Z,29.10
2018-10-16T12:41:28.664Z,32.90
2018-10-16T12:43:59.333Z,33.00
2018-10-16T12:46:30.027Z,37.53
2018-10-16T12:49:00.653Z,29.82
2018-10-16T12:51:31.303Z,36.43
2018-10-16T12:54:02.038Z,30.80
2018-10-16T12:56:32.632Z,28.90
2018-10-16T12:59:03.320Z,27.73
2018-10-16T13:01:34.090Z,29.63
2018-10-16T13:04:04.979Z,28.53
2018-10-16T13:06:35.738Z,29.70
2018-10-16T13:09:08.756Z,26.60
2018-10-16T13:11:39.644Z,26.50
2018-10-16T13:14:10.337Z,33.70
2018-10-16T13:16:41.333Z,30.63
2018-10-16T13:19:12.032Z,32.13
2018-10-16T13:21:42.992Z,31.37
2018-10-16T13:24:13.650Z,30.37
2018-10-16T13:26:44.240Z,28.97
2018-10-16T13:29:14.967Z,31.20
2018-10-16T13:31:45.496Z,25.23
2018-10-16T13:34:16.223Z,25.83
2018-10-16T13:36:46.868Z,28.80
2018-10-16T13:39:17.499Z,25.13
2018-10-16T13:41:48.386Z,24.93
2018-10-16T13:44:18.992Z,23.27
2018-10-16T13:46:49.652Z,25.03
2018-10-16T13:49:20.308Z,25.60
2018-10-16T13:51:50.951Z,23.02
2018-10-16T13:54:21.653Z,25.87
2018-10-16T13:56:52.309Z,25.30
2018-10-16T13:59:22.914Z,27.90
2018-10-16T14:01:53.591Z,24.73
2018-10-16T14:04:24.543Z,28.27
2018-10-16T14:06:55.218Z,36.13
2018-10-16T14:09:25.819Z,31.57
2018-10-16T14:11:56.474Z,33.87
2018-10-16T14:14:27.120Z,29.03
2018-10-16T14:16:57.846Z,28.33
2018-10-16T14:19:28.479Z,34.25
2018-10-16T14:21:59.426Z,34.90
2018-10-16T14:24:31.109Z,30.30
2018-10-16T14:27:01.876Z,33.33
2018-10-16T14:29:32.536Z,35.40
2018-10-16T14:32:03.284Z,32.23
2018-10-16T14:34:34.168Z,32.23
2018-10-16T14:37:04.900Z,33.95
2018-10-16T14:39:35.542Z,32.85
2018-10-16T14:42:07.192Z,33.45
2018-10-16T14:44:37.868Z,31.13
2018-10-16T14:47:08.821Z,32.57
2018-10-16T14:49:40.383Z,31.10
2018-10-16T14:52:14.778Z,27.27
2018-10-16T14:54:45.388Z,31.33
2018-10-16T14:57:16.085Z,29.13
2018-10-16T14:59:46.797Z,32.42
2018-10-16T15:02:17.470Z,35.73
2018-10-16T15:04:48.096Z,35.03
2018-10-16T15:07:18.774Z,36.03
2018-10-16T15:09:49.467Z,33.80
2018-10-16T15:12:31.137Z,39.23
2018-10-16T15:15:02.977Z,37.65
2018-10-16T15:17:33.720Z,34.63
2018-10-16T15:20:04.740Z,30.23
2018-10-16T15:22:35.302Z,28.97
2018-10-16T15:25:06.946Z,30.13
2018-10-16T15:27:37.644Z,32.10
2018-10-16T15:30:10.018Z,28.00
2018-10-16T15:35:12.272Z,33.80
2018-10-16T15:37:42.993Z,40.17
2018-10-16T15:40:13.840Z,36.73
2018-10-16T15:42:44.373Z,38.47
2018-10-16T15:45:15.121Z,42.43
2018-10-16T15:47:46.582Z,42.20
2018-10-16T15:50:17.316Z,35.33
2018-10-16T15:52:49.067Z,34.57
2018-10-16T15:55:19.816Z,37.00
2018-10-16T15:57:50.685Z,39.90
2018-10-16T16:00:21.162Z,34.43
2018-10-16T16:02:51.878Z,39.80
2018-10-16T16:05:22.501Z,32.73
2018-10-16T16:07:53.246Z,32.60
2018-10-16T16:10:23.971Z,34.53
2018-10-16T16:12:54.683Z,29.27
2018-10-16T16:15:25.311Z,37.03
2018-10-16T16:17:56.005Z,39.63
2018-10-16T16:20:26.659Z,39.10
2018-10-16T16:22:57.383Z,36.00
2018-10-16T16:25:28.460Z,39.55
2018-10-16T16:27:59.237Z,31.87
2018-10-16T16:30:30.232Z,33.77
2018-10-16T16:33:00.942Z,30.77
2018-10-16T16:35:31.913Z,29.87
2018-10-16T16:38:02.618Z,31.43
2018-10-16T16:40:33.257Z,32.73
2018-10-16T16:43:03.907Z,36.30
2018-10-16T16:45:34.576Z,33.37
2018-10-16T16:48:05.263Z,31.93
2018-10-16T16:50:35.984Z,34.73
2018-10-16T16:53:06.980Z,36.87
2018-10-16T16:55:37.608Z,36.83
2018-10-16T16:58:08.441Z,34.87
2018-10-16T17:00:38.983Z,37.27
2018-10-16T17:03:09.640Z,37.93
2018-10-16T17:05:40.241Z,40.58
2018-10-16T17:08:10.998Z,37.35
2018-10-16T17:10:41.644Z,37.77
2018-10-16T17:13:12.379Z,37.17
2018-10-16T17:15:43.214Z,34.40
2018-10-16T17:18:14.066Z,37.33
2018-10-16T17:20:45.748Z,40.33
2018-10-16T17:23:16.572Z,40.13
2018-10-16T17:25:47.937Z,34.43
2018-10-16T17:28:18.514Z,41.60
2018-10-16T17:30:49.232Z,40.43
2018-10-16T17:33:19.956Z,42.20
2018-10-16T17:35:50.649Z,43.17
2018-10-16T17:38:21.891Z,42.90
2018-10-16T17:40:53.182Z,44.00
2018-10-16T17:43:27.497Z,46.20
2018-10-16T17:45:58.225Z,46.47
2018-10-16T17:48:29.277Z,42.27
2018-10-16T17:50:59.974Z,41.70
2018-10-16T17:53:31.043Z,42.10
2018-10-16T17:56:01.794Z,40.48
2018-10-16T17:58:32.695Z,40.53
2018-10-16T18:01:03.346Z,42.80
2018-10-16T18:03:34.054Z,48.83
2018-10-16T18:06:05.559Z,44.10
2018-10-16T18:08:36.947Z,41.73
2018-10-16T18:11:08.181Z,43.93
2018-10-16T18:13:38.913Z,41.67
2018-10-16T18:16:09.609Z,42.40
2018-10-16T18:18:40.296Z,43.20
2018-10-16T18:21:11.012Z,42.75
2018-10-16T18:23:41.666Z,42.78
2018-10-16T18:26:12.458Z,41.90
2018-10-16T18:28:43.285Z,41.07
2018-10-16T18:31:13.929Z,41.47
2018-10-16T18:33:44.728Z,45.90
2018-10-16T18:36:15.407Z,41.70
2018-10-16T18:38:46.186Z,38.83
2018-10-16T18:41:16.898Z,35.70
2018-10-16T18:43:47.648Z,42.17
2018-10-16T18:46:18.416Z,42.33
2018-10-16T18:48:49.142Z,41.40
2018-10-16T18:51:19.833Z,40.17
2018-10-16T18:53:50.590Z,46.43
2018-10-16T18:56:21.909Z,42.93
2018-10-16T18:58:52.664Z,44.42
2018-10-16T19:01:23.365Z,46.17
2018-10-16T19:03:54.066Z,38.95
2018-10-16T19:06:24.898Z,40.30
2018-10-16T19:08:55.568Z,44.33
2018-10-16T19:11:26.281Z,46.30
2018-10-16T19:13:57.148Z,41.63
2018-10-16T19:16:27.774Z,44.57
2018-10-16T19:18:58.735Z,39.90
2018-10-16T19:21:29.444Z,40.17
2018-10-16T19:24:00.221Z,39.78
2018-10-16T19:26:31.048Z,37.80
2018-10-16T19:29:01.697Z,40.23
2018-10-16T19:31:32.886Z,43.77
2018-10-16T19:34:03.663Z,44.03
2018-10-16T19:36:34.444Z,48.00
2018-10-16T19:39:06.074Z,44.63
2018-10-16T19:41:36.748Z,45.40
2018-10-16T19:44:07.498Z,48.13
2018-10-16T19:46:38.218Z,45.48
2018-10-16T19:49:09.175Z,53.03
2018-10-16T19:51:39.970Z,49.45
2018-10-16T19:54:10.691Z,50.10
2018-10-16T19:56:41.691Z,45.43
2018-10-16T19:59:13.658Z,48.50
2018-10-16T20:01:44.315Z,43.67
2018-10-16T20:04:15.070Z,47.47
2018-10-16T20:06:45.769Z,47.20
2018-10-16T20:09:16.597Z,45.57
2018-10-16T20:11:47.349Z,51.45
2018-10-16T20:14:18.080Z,45.20
2018-10-16T20:16:48.664Z,48.85
2018-10-16T20:19:19.742Z,47.30
2018-10-16T20:21:50.498Z,43.80
2018-10-16T20:24:21.254Z,45.20
2018-10-16T20:26:51.958Z,46.30
2018-10-16T20:29:22.784Z,49.00
2018-10-16T20:31:53.509Z,42.55
2018-10-16T20:34:24.162Z,43.55
2018-10-16T20:36:55.254Z,47.78
2018-10-16T20:39:26.070Z,42.73
2018-10-16T20:41:57.777Z,42.17
2018-10-16T20:44:28.405Z,42.67
2018-10-16T20:46:59.510Z,44.57
2018-10-16T20:49:30.303Z,43.57
2018-10-16T20:52:01.378Z,51.50
2018-10-16T20:54:32.084Z,44.25
2018-10-16T20:57:02.791Z,45.03
2018-10-16T20:59:33.594Z,40.65
2018-10-16T21:02:04.340Z,39.17
2018-10-16T21:04:35.072Z,39.90
2018-10-16T21:07:05.923Z,43.60
2018-10-16T21:09:36.459Z,47.97
2018-10-16T21:12:07.271Z,45.03
2018-10-16T21:14:37.894Z,43.13
2018-10-16T21:17:08.516Z,45.83
2018-10-16T21:19:39.209Z,41.93
2018-10-16T21:22:10.069Z,42.07
2018-10-16T21:24:40.687Z,42.80
2018-10-16T21:27:12.624Z,45.23
2018-10-16T21:29:43.300Z,38.10
2018-10-16T21:32:14.044Z,41.83
2018-10-16T21:34:44.790Z,44.67
2018-10-16T21:37:16.005Z,46.10
2018-10-16T21:39:46.753Z,42.27
2018-10-16T21:42:17.753Z,37.10
2018-10-16T21:44:48.424Z,44.33
2018-10-16T21:47:19.104Z,40.97
2018-10-16T21:49:50.618Z,43.60
2018-10-16T21:52:21.260Z,39.20
2018-10-16T21:57:22.657Z,40.47
2018-10-16T21:59:53.306Z,40.80
2018-10-16T22:02:41.494Z,40.63
2018-10-16T22:05:12.650Z,36.00
2018-10-16T22:07:43.622Z,40.10
2018-10-16T22:10:14.417Z,38.60
2018-10-16T22:12:46.935Z,38.47
2018-10-16T22:15:18.264Z,37.17
2018-10-16T22:17:49.365Z,37.30
2018-10-16T22:20:20.138Z,35.90
2018-10-16T22:22:50.809Z,36.83
2018-10-16T22:25:21.612Z,37.37
2018-10-16T22:27:52.365Z,37.07
2018-10-16T22:30:23.437Z,37.50
2018-10-16T22:32:54.113Z,38.13
2018-10-16T22:35:24.810Z,34.40
2018-10-16T22:37:55.440Z,35.92
2018-10-16T22:40:26.116Z,37.73
2018-10-16T22:42:56.971Z,40.17
2018-10-16T22:45:27.674Z,36.23
2018-10-16T22:47:59.237Z,42.25
2018-10-16T22:50:30.443Z,40.30
2018-10-16T22:53:01.172Z,40.00
2018-10-16T22:55:34.838Z,41.70
2018-10-16T22:58:05.593Z,42.13
2018-10-16T23:00:36.359Z,46.10
2018-10-16T23:03:07.131Z,37.90
2018-10-16T23:05:37.817Z,36.77
2018-10-16T23:08:09.609Z,38.60
2018-10-16T23:10:40.861Z,35.97
2018-10-16T23:13:12.144Z,37.77
2018-10-16T23:15:44.005Z,33.97
2018-10-16T23:18:15.888Z,34.93
2018-10-16T23:20:51.167Z,37.13
2018-10-16T23:23:22.108Z,35.07
2018-10-16T23:25:54.073Z,29.03
2018-10-16T23:28:25.207Z,30.30
2018-10-16T23:30:56.617Z,30.05
2018-10-16T23:33:29.516Z,34.58
2018-10-16T23:36:01.685Z,31.95
2018-10-16T23:38:33.020Z,32.07
2018-10-16T23:41:04.251Z,32.03
2018-10-16T23:43:36.446Z,30.33
2018-10-16T23:46:11.572Z,29.05
2018-10-16T23:48:44.616Z,28.12
2018-10-16T23:51:15.825Z,29.37
2018-10-16T23:53:47.674Z,30.83
2018-10-16T23:56:18.615Z,31.70
2018-10-16T23:58:50.848Z,36.27
